sensor_id;sensor_type;location;lat;lon;timestamp;pressure;altitude;pressure_sealevel;temperature;humidity
1726;BME280;41776;48.260;8.928;2023-05-23T00:01:27;52452.31;;;-145.69;100.00
1726;BME280;41776;48.260;8.928;2023-05-23T00:03:55;52418.63;;;-145.69;100.00
1726;BME280;41776;48.260;8.928;2023-05-23T00:06:22;52458.25;;;-145.69;100.00
1726;BME280;41776;48.260;8.928;2023-05-23T00:08:48;52420.63;;;-145.69;100.00
1726;BME280;41776;48.260;8.928;2023-05-23T00:11:16;52478.06;;;-145.69;100.00
1726;BME280;41776;48.260;8.928;2023-05-23T00:13:44;52432.50;;;-145.69;100.00
1726;BME280;41776;48.260;8.928;2023-05-23T00:16:11;52444.38;;;-145.69;100.00
1726;BME280;41776;48.260;8.928;2023-05-23T00:18:40;52456.28;;;-145.69;100.00
1726;BME280;41776;48.260;8.928;2023-05-23T00:21:07;52442.41;;;-145.69;100.00
1726;BME280;41776;48.260;8.928;2023-05-23T00:23:34;52424.59;;;-145.69;100.00
1726;BME280;41776;48.260;8.928;2023-05-23T00:26:02;52464.19;;;-145.69;100.00
1726;BME280;41776;48.260;8.928;2023-05-23T00:28:30;52444.38;;;-145.69;100.00
1726;BME280;41776;48.260;8.928;2023-05-23T00:30:57;52485.97;;;-145.69;100.00
1726;BME280;41776;48.260;8.928;2023-05-23T00:33:23;52424.59;;;-145.69;100.00
1726;BME280;41776;48.260;8.928;2023-05-23T00:35:50;52462.22;;;-145.69;100.00
1726;BME280;41776;48.260;8.928;2023-05-23T00:38:16;52444.38;;;-145.69;100.00
1726;BME280;41776;48.260;8.928;2023-05-23T00:40:45;52460.22;;;-145.69;100.00
1726;BME280;41776;48.260;8.928;2023-05-23T00:43:12;52440.44;;;-145.69;100.00
1726;BME280;41776;48.260;8.928;2023-05-23T00:45:41;52448.34;;;-145.69;100.00
1726;BME280;41776;48.260;8.928;2023-05-23T00:48:08;52432.50;;;-145.69;100.00
1726;BME280;41776;48.260;8.928;2023-05-23T00:50:36;52426.56;;;-145.69;100.00
1726;BME280;41776;48.260;8.928;2023-05-23T00:53:02;52462.22;;;-145.69;100.00
1726;BME280;41776;48.260;8.928;2023-05-23T00:55:30;52452.31;;;-145.69;100.00
1726;BME280;41776;48.260;8.928;2023-05-23T00:57:56;52430.53;;;-145.69;100.00
1726;BME280;41776;48.260;8.928;2023-05-23T01:00:23;52472.13;;;-145.69;100.00
1726;BME280;41776;48.260;8.928;2023-05-23T01:02:55;52440.44;;;-145.69;100.00
1726;BME280;41776;48.260;8.928;2023-05-23T01:05:21;52450.31;;;-145.69;100.00
1726;BME280;41776;48.260;8.928;2023-05-23T01:07:49;52432.50;;;-145.69;100.00
1726;BME280;41776;48.260;8.928;2023-05-23T01:10:18;52424.59;;;-145.69;100.00
1726;BME280;41776;48.260;8.928;2023-05-23T01:12:53;52440.44;;;-145.69;100.00
1726;BME280;41776;48.260;8.928;2023-05-23T01:15:24;52450.31;;;-145.69;100.00
1726;BME280;41776;48.260;8.928;2023-05-23T01:17:59;52438.44;;;-145.69;100.00
1726;BME280;41776;48.260;8.928;2023-05-23T01:20:30;52422.59;;;-145.69;100.00
1726;BME280;41776;48.260;8.928;2023-05-23T01:26:30;52432.50;;;-145.69;100.00
1726;BME280;41776;48.260;8.928;2023-05-23T01:29:02;52452.31;;;-145.69;100.00
1726;BME280;41776;48.260;8.928;2023-05-23T01:31:35;52438.44;;;-145.69;100.00
1726;BME280;41776;48.260;8.928;2023-05-23T01:34:03;52442.41;;;-145.69;100.00
1726;BME280;41776;48.260;8.928;2023-05-23T01:36:32;52454.28;;;-145.69;100.00
1726;BME280;41776;48.260;8.928;2023-05-23T01:38:59;52426.56;;;-145.69;100.00
1726;BME280;41776;48.260;8.928;2023-05-23T01:41:26;52450.31;;;-145.69;100.00
1726;BME280;41776;48.260;8.928;2023-05-23T01:43:53;52440.44;;;-145.69;100.00
1726;BME280;41776;48.260;8.928;2023-05-23T01:46:22;52412.69;;;-145.69;100.00
1726;BME280;41776;48.260;8.928;2023-05-23T01:48:49;52430.53;;;-145.69;100.00
1726;BME280;41776;48.260;8.928;2023-05-23T01:51:16;52444.38;;;-145.69;100.00
1726;BME280;41776;48.260;8.928;2023-05-23T01:53:44;52436.47;;;-145.69;100.00
1726;BME280;41776;48.260;8.928;2023-05-23T01:56:12;52434.47;;;-145.69;100.00
1726;BME280;41776;48.260;8.928;2023-05-23T01:58:39;52452.31;;;-145.69;100.00
1726;BME280;41776;48.260;8.928;2023-05-23T02:01:05;52432.50;;;-145.69;100.00
1726;BME280;41776;48.260;8.928;2023-05-23T02:03:33;52458.25;;;-145.69;100.00
1726;BME280;41776;48.260;8.928;2023-05-23T02:06:00;52412.69;;;-145.69;100.00
1726;BME280;41776;48.260;8.928;2023-05-23T02:08:27;52450.31;;;-145.69;100.00
1726;BME280;41776;48.260;8.928;2023-05-23T02:10:53;52448.34;;;-145.69;100.00
1726;BME280;41776;48.260;8.928;2023-05-23T02:13:20;52432.50;;;-145.69;100.00
1726;BME280;41776;48.260;8.928;2023-05-23T02:15:46;52408.75;;;-145.69;100.00
1726;BME280;41776;48.260;8.928;2023-05-23T02:18:13;52424.59;;;-145.69;100.00
1726;BME280;41776;48.260;8.928;2023-05-23T02:20:41;52420.63;;;-145.69;100.00
1726;BME280;41776;48.260;8.928;2023-05-23T02:23:07;52404.78;;;-145.69;100.00
1726;BME280;41776;48.260;8.928;2023-05-23T02:25:34;52442.41;;;-145.69;100.00
1726;BME280;41776;48.260;8.928;2023-05-23T02:28:03;52430.53;;;-145.69;100.00
1726;BME280;41776;48.260;8.928;2023-05-23T02:30:29;52438.44;;;-145.69;100.00
1726;BME280;41776;48.260;8.928;2023-05-23T02:32:56;52440.44;;;-145.69;100.00
1726;BME280;41776;48.260;8.928;2023-05-23T02:35:22;52448.34;;;-145.69;100.00
1726;BME280;41776;48.260;8.928;2023-05-23T02:37:56;52422.59;;;-145.69;100.00
1726;BME280;41776;48.260;8.928;2023-05-23T02:40:22;52446.38;;;-145.69;100.00
1726;BME280;41776;48.260;8.928;2023-05-23T02:42:50;52386.97;;;-145.69;100.00
1726;BME280;41776;48.260;8.928;2023-05-23T02:45:17;52452.31;;;-145.69;100.00
1726;BME280;41776;48.260;8.928;2023-05-23T02:47:43;52412.69;;;-145.69;100.00
1726;BME280;41776;48.260;8.928;2023-05-23T02:50:10;52420.63;;;-145.69;100.00
1726;BME280;41776;48.260;8.928;2023-05-23T02:52:36;52396.84;;;-145.69;100.00
1726;BME280;41776;48.260;8.928;2023-05-23T02:55:05;52398.84;;;-145.69;100.00
1726;BME280;41776;48.260;8.928;2023-05-23T02:57:32;52444.38;;;-145.69;100.00
1726;BME280;41776;48.260;8.928;2023-05-23T02:59:58;52396.84;;;-145.69;100.00
1726;BME280;41776;48.260;8.928;2023-05-23T03:02:25;52432.50;;;-145.69;100.00
1726;BME280;41776;48.260;8.928;2023-05-23T03:04:51;52390.91;;;-145.69;100.00
1726;BME280;41776;48.260;8.928;2023-05-23T03:07:20;52420.63;;;-145.69;100.00
1726;BME280;41776;48.260;8.928;2023-05-23T03:09:46;52404.78;;;-145.69;100.00
1726;BME280;41776;48.260;8.928;2023-05-23T03:12:14;52410.72;;;-145.69;100.00
1726;BME280;41776;48.260;8.928;2023-05-23T03:14:41;52408.75;;;-145.69;100.00
1726;BME280;41776;48.260;8.928;2023-05-23T03:17:07;52412.69;;;-145.69;100.00
1726;BME280;41776;48.260;8.928;2023-05-23T03:19:33;52408.75;;;-145.69;100.00
1726;BME280;41776;48.260;8.928;2023-05-23T03:22:00;52422.59;;;-145.69;100.00
1726;BME280;41776;48.260;8.928;2023-05-23T03:24:26;52392.91;;;-145.69;100.00
1726;BME280;41776;48.260;8.928;2023-05-23T03:26:56;52432.50;;;-145.69;100.00
1726;BME280;41776;48.260;8.928;2023-05-23T03:29:23;52440.44;;;-145.69;100.00
1726;BME280;41776;48.260;8.928;2023-05-23T03:31:50;52408.75;;;-145.69;100.00
1726;BME280;41776;48.260;8.928;2023-05-23T03:34:16;52404.78;;;-145.69;100.00
1726;BME280;41776;48.260;8.928;2023-05-23T03:36:43;52420.63;;;-145.69;100.00
1726;BME280;41776;48.260;8.928;2023-05-23T03:39:09;52404.78;;;-145.69;100.00
1726;BME280;41776;48.260;8.928;2023-05-23T03:41:36;52412.69;;;-145.69;100.00
1726;BME280;41776;48.260;8.928;2023-05-23T03:44:02;52430.53;;;-145.69;100.00
1726;BME280;41776;48.260;8.928;2023-05-23T03:46:30;52418.63;;;-145.69;100.00
1726;BME280;41776;48.260;8.928;2023-05-23T03:48:57;52412.69;;;-145.69;100.00
1726;BME280;41776;48.260;8.928;2023-05-23T03:51:23;52410.72;;;-145.69;100.00
1726;BME280;41776;48.260;8.928;2023-05-23T03:53:50;52430.53;;;-145.69;100.00
1726;BME280;41776;48.260;8.928;2023-05-23T03:56:16;52420.63;;;-145.69;100.00
1726;BME280;41776;48.260;8.928;2023-05-23T03:58:43;52424.59;;;-145.69;100.00
1726;BME280;41776;48.260;8.928;2023-05-23T04:01:10;52400.81;;;-145.69;100.00
1726;BME280;41776;48.260;8.928;2023-05-23T04:03:38;52440.44;;;-145.69;100.00
1726;BME280;41776;48.260;8.928;2023-05-23T04:06:04;52430.53;;;-145.69;100.00
1726;BME280;41776;48.260;8.928;2023-05-23T04:08:33;52408.75;;;-145.69;100.00
1726;BME280;41776;48.260;8.928;2023-05-23T04:10:59;52428.53;;;-145.69;100.00
1726;BME280;41776;48.260;8.928;2023-05-23T04:13:26;52396.84;;;-145.69;100.00
1726;BME280;41776;48.260;8.928;2023-05-23T04:15:52;52420.63;;;-145.69;100.00
1726;BME280;41776;48.260;8.928;2023-05-23T04:18:20;52416.66;;;-145.69;100.00
1726;BME280;41776;48.260;8.928;2023-05-23T04:20:48;52396.84;;;-145.69;100.00
1726;BME280;41776;48.260;8.928;2023-05-23T04:23:15;52404.78;;;-145.69;100.00
1726;BME280;41776;48.260;8.928;2023-05-23T04:25:41;52428.53;;;-145.69;100.00
1726;BME280;41776;48.260;8.928;2023-05-23T04:28:09;52400.81;;;-145.69;100.00
1726;BME280;41776;48.260;8.928;2023-05-23T04:30:36;52428.53;;;-145.69;100.00
1726;BME280;41776;48.260;8.928;2023-05-23T04:33:02;52412.69;;;-145.69;100.00
1726;BME280;41776;48.260;8.928;2023-05-23T04:35:32;52444.38;;;-145.69;100.00
1726;BME280;41776;48.260;8.928;2023-05-23T04:38:04;52438.44;;;-145.69;100.00
1726;BME280;41776;48.260;8.928;2023-05-23T04:40:30;52404.78;;;-145.69;100.00
1726;BME280;41776;48.260;8.928;2023-05-23T04:42:57;52428.53;;;-145.69;100.00
1726;BME280;41776;48.260;8.928;2023-05-23T04:45:24;52440.44;;;-145.69;100.00
1726;BME280;41776;48.260;8.928;2023-05-23T04:47:51;52422.59;;;-145.69;100.00
1726;BME280;41776;48.260;8.928;2023-05-23T04:50:19;52428.53;;;-145.69;100.00
1726;BME280;41776;48.260;8.928;2023-05-23T04:52:46;52412.69;;;-145.69;100.00
1726;BME280;41776;48.260;8.928;2023-05-23T04:55:14;52396.84;;;-145.69;100.00
1726;BME280;41776;48.260;8.928;2023-05-23T04:57:42;52379.03;;;-145.69;100.00
1726;BME280;41776;48.260;8.928;2023-05-23T05:00:09;52420.63;;;-145.69;100.00
1726;BME280;41776;48.260;8.928;2023-05-23T05:02:36;52456.28;;;-145.69;100.00
1726;BME280;41776;48.260;8.928;2023-05-23T05:05:02;52406.75;;;-145.69;100.00
1726;BME280;41776;48.260;8.928;2023-05-23T05:07:29;52410.72;;;-145.69;100.00
1726;BME280;41776;48.260;8.928;2023-05-23T05:09:56;52400.81;;;-145.69;100.00
1726;BME280;41776;48.260;8.928;2023-05-23T05:12:24;52412.69;;;-145.69;100.00
1726;BME280;41776;48.260;8.928;2023-05-23T05:14:50;52416.66;;;-145.69;100.00
1726;BME280;41776;48.260;8.928;2023-05-23T05:17:16;52386.97;;;-145.69;100.00
1726;BME280;41776;48.260;8.928;2023-05-23T05:19:44;52402.78;;;-145.69;100.00
1726;BME280;41776;48.260;8.928;2023-05-23T05:22:10;52379.03;;;-145.69;100.00
1726;BME280;41776;48.260;8.928;2023-05-23T05:24:37;52396.84;;;-145.69;100.00
1726;BME280;41776;48.260;8.928;2023-05-23T05:27:08;52384.97;;;-145.69;100.00
1726;BME280;41776;48.260;8.928;2023-05-23T05:29:37;52390.91;;;-145.69;100.00
1726;BME280;41776;48.260;8.928;2023-05-23T05:32:04;52386.97;;;-145.69;100.00
1726;BME280;41776;48.260;8.928;2023-05-23T05:34:33;52436.47;;;-145.69;100.00
1726;BME280;41776;48.260;8.928;2023-05-23T05:37:01;52398.84;;;-145.69;100.00
1726;BME280;41776;48.260;8.928;2023-05-23T05:39:28;52392.91;;;-145.69;100.00
1726;BME280;41776;48.260;8.928;2023-05-23T05:41:54;52398.84;;;-145.69;100.00
1726;BME280;41776;48.260;8.928;2023-05-23T05:44:24;52392.91;;;-145.69;100.00
1726;BME280;41776;48.260;8.928;2023-05-23T05:46:52;52410.72;;;-145.69;100.00
1726;BME280;41776;48.260;8.928;2023-05-23T05:49:19;52396.84;;;-145.69;100.00
1726;BME280;41776;48.260;8.928;2023-05-23T05:51:45;52414.69;;;-145.69;100.00
1726;BME280;41776;48.260;8.928;2023-05-23T05:54:12;52388.94;;;-145.69;100.00
1726;BME280;41776;48.260;8.928;2023-05-23T05:56:38;52416.66;;;-145.69;100.00
1726;BME280;41776;48.260;8.928;2023-05-23T05:59:06;52392.91;;;-145.69;100.00
1726;BME280;41776;48.260;8.928;2023-05-23T06:01:32;52404.78;;;-145.69;100.00
1726;BME280;41776;48.260;8.928;2023-05-23T06:04:01;52456.28;;;-145.69;100.00
1726;BME280;41776;48.260;8.928;2023-05-23T06:06:27;52404.78;;;-145.69;100.00
1726;BME280;41776;48.260;8.928;2023-05-23T06:08:54;52404.78;;;-145.69;100.00
1726;BME280;41776;48.260;8.928;2023-05-23T06:11:20;52426.56;;;-145.69;100.00
1726;BME280;41776;48.260;8.928;2023-05-23T06:13:47;52420.63;;;-145.69;100.00
1726;BME280;41776;48.260;8.928;2023-05-23T06:16:13;52410.72;;;-145.69;100.00
1726;BME280;41776;48.260;8.928;2023-05-23T06:18:40;52416.66;;;-145.69;100.00
1726;BME280;41776;48.260;8.928;2023-05-23T06:21:08;52392.91;;;-145.69;100.00
1726;BME280;41776;48.260;8.928;2023-05-23T06:23:35;52379.03;;;-145.69;100.00
1726;BME280;41776;48.260;8.928;2023-05-23T06:26:01;52424.59;;;-145.69;100.00
1726;BME280;41776;48.260;8.928;2023-05-23T06:28:32;52438.44;;;-145.69;100.00
1726;BME280;41776;48.260;8.928;2023-05-23T06:30:58;52430.53;;;-145.69;100.00
1726;BME280;41776;48.260;8.928;2023-05-23T06:33:25;52440.44;;;-145.69;100.00
1726;BME280;41776;48.260;8.928;2023-05-23T06:35:51;52454.28;;;-145.69;100.00
1726;BME280;41776;48.260;8.928;2023-05-23T06:38:19;52420.63;;;-145.69;100.00
1726;BME280;41776;48.260;8.928;2023-05-23T06:40:46;52450.31;;;-145.69;100.00
1726;BME280;41776;48.260;8.928;2023-05-23T06:43:12;52406.75;;;-145.69;100.00
1726;BME280;41776;48.260;8.928;2023-05-23T06:45:39;52438.44;;;-145.69;100.00
1726;BME280;41776;48.260;8.928;2023-05-23T06:48:05;52418.63;;;-145.69;100.00
1726;BME280;41776;48.260;8.928;2023-05-23T06:50:32;52406.75;;;-145.69;100.00
1726;BME280;41776;48.260;8.928;2023-05-23T06:52:58;52436.47;;;-145.69;100.00
1726;BME280;41776;48.260;8.928;2023-05-23T06:55:26;52450.31;;;-145.69;100.00
1726;BME280;41776;48.260;8.928;2023-05-23T06:57:54;52410.72;;;-145.69;100.00
1726;BME280;41776;48.260;8.928;2023-05-23T07:00:21;52416.66;;;-145.69;100.00
1726;BME280;41776;48.260;8.928;2023-05-23T07:02:47;52416.66;;;-145.69;100.00
1726;BME280;41776;48.260;8.928;2023-05-23T07:05:14;52400.81;;;-145.69;100.00
1726;BME280;41776;48.260;8.928;2023-05-23T07:07:41;52428.53;;;-145.69;100.00
1726;BME280;41776;48.260;8.928;2023-05-23T07:10:08;52420.63;;;-145.69;100.00
1726;BME280;41776;48.260;8.928;2023-05-23T07:12:36;52414.69;;;-145.69;100.00
1726;BME280;41776;48.260;8.928;2023-05-23T07:15:03;52436.47;;;-145.69;100.00
1726;BME280;41776;48.260;8.928;2023-05-23T07:17:30;52424.59;;;-145.69;100.00
1726;BME280;41776;48.260;8.928;2023-05-23T07:19:57;52408.75;;;-145.69;100.00
1726;BME280;41776;48.260;8.928;2023-05-23T07:22:23;52422.59;;;-145.69;100.00
1726;BME280;41776;48.260;8.928;2023-05-23T07:24:50;52462.22;;;-145.69;100.00
1726;BME280;41776;48.260;8.928;2023-05-23T07:27:21;52448.34;;;-145.69;100.00
1726;BME280;41776;48.260;8.928;2023-05-23T07:29:49;52448.34;;;-145.69;100.00
1726;BME280;41776;48.260;8.928;2023-05-23T07:32:16;52416.66;;;-145.69;100.00
1726;BME280;41776;48.260;8.928;2023-05-23T07:34:42;52404.78;;;-145.69;100.00
1726;BME280;41776;48.260;8.928;2023-05-23T07:37:09;52426.56;;;-145.69;100.00
1726;BME280;41776;48.260;8.928;2023-05-23T07:39:35;52432.50;;;-145.69;100.00
1726;BME280;41776;48.260;8.928;2023-05-23T07:42:02;52410.72;;;-145.69;100.00
1726;BME280;41776;48.260;8.928;2023-05-23T07:44:28;52448.34;;;-145.69;100.00
1726;BME280;41776;48.260;8.928;2023-05-23T07:46:56;52426.56;;;-145.69;100.00
1726;BME280;41776;48.260;8.928;2023-05-23T07:49:23;52438.44;;;-145.69;100.00
1726;BME280;41776;48.260;8.928;2023-05-23T07:51:49;52444.38;;;-145.69;100.00
1726;BME280;41776;48.260;8.928;2023-05-23T07:54:18;52468.16;;;-145.69;100.00
1726;BME280;41776;48.260;8.928;2023-05-23T07:56:45;52408.75;;;-145.69;100.00
1726;BME280;41776;48.260;8.928;2023-05-23T07:59:11;52406.75;;;-145.69;100.00
1726;BME280;41776;48.260;8.928;2023-05-23T08:01:38;52422.59;;;-145.69;100.00
1726;BME280;41776;48.260;8.928;2023-05-23T08:04:05;52456.28;;;-145.69;100.00
1726;BME280;41776;48.260;8.928;2023-05-23T08:06:32;52422.59;;;-145.69;100.00
1726;BME280;41776;48.260;8.928;2023-05-23T08:08:59;52460.22;;;-145.69;100.00
1726;BME280;41776;48.260;8.928;2023-05-23T08:11:26;52420.63;;;-145.69;100.00
1726;BME280;41776;48.260;8.928;2023-05-23T08:13:54;52470.13;;;-145.69;100.00
1726;BME280;41776;48.260;8.928;2023-05-23T08:16:21;52412.69;;;-145.69;100.00
1726;BME280;41776;48.260;8.928;2023-05-23T08:18:47;52440.44;;;-145.69;100.00
1726;BME280;41776;48.260;8.928;2023-05-23T08:21:15;52444.38;;;-145.69;100.00
1726;BME280;41776;48.260;8.928;2023-05-23T08:23:41;52448.34;;;-145.69;100.00
1726;BME280;41776;48.260;8.928;2023-05-23T08:26:08;52444.38;;;-145.69;100.00
1726;BME280;41776;48.260;8.928;2023-05-23T08:28:34;52412.69;;;-145.69;100.00
1726;BME280;41776;48.260;8.928;2023-05-23T08:31:01;52408.75;;;-145.69;100.00
1726;BME280;41776;48.260;8.928;2023-05-23T08:33:30;52420.63;;;-145.69;100.00
1726;BME280;41776;48.260;8.928;2023-05-23T08:35:56;52454.28;;;-145.69;100.00
1726;BME280;41776;48.260;8.928;2023-05-23T08:38:24;52432.50;;;-145.69;100.00
1726;BME280;41776;48.260;8.928;2023-05-23T08:40:53;52422.59;;;-145.69;100.00
1726;BME280;41776;48.260;8.928;2023-05-23T08:43:23;52422.59;;;-145.69;100.00
1726;BME280;41776;48.260;8.928;2023-05-23T08:45:50;52412.69;;;-145.69;100.00
1726;BME280;41776;48.260;8.928;2023-05-23T08:48:18;52444.38;;;-145.69;100.00
1726;BME280;41776;48.260;8.928;2023-05-23T08:50:47;52420.63;;;-145.69;100.00
1726;BME280;41776;48.260;8.928;2023-05-23T08:53:15;52416.66;;;-145.69;100.00
1726;BME280;41776;48.260;8.928;2023-05-23T08:55:46;52416.66;;;-145.69;100.00
1726;BME280;41776;48.260;8.928;2023-05-23T08:58:16;52394.88;;;-145.69;100.00
1726;BME280;41776;48.260;8.928;2023-05-23T09:00:45;52396.84;;;-145.69;100.00
1726;BME280;41776;48.260;8.928;2023-05-23T09:03:12;52381.00;;;-145.69;100.00
1726;BME280;41776;48.260;8.928;2023-05-23T09:05:39;52418.63;;;-145.69;100.00
1726;BME280;41776;48.260;8.928;2023-05-23T09:08:05;52396.84;;;-145.69;100.00
1726;BME280;41776;48.260;8.928;2023-05-23T09:10:32;52398.84;;;-145.69;100.00
1726;BME280;41776;48.260;8.928;2023-05-23T09:13:02;52434.47;;;-145.69;100.00
1726;BME280;41776;48.260;8.928;2023-05-23T09:15:29;52383.00;;;-145.69;100.00
1726;BME280;41776;48.260;8.928;2023-05-23T09:17:58;52377.06;;;-145.69;100.00
1726;BME280;41776;48.260;8.928;2023-05-23T09:20:26;52412.69;;;-145.69;100.00
1726;BME280;41776;48.260;8.928;2023-05-23T09:22:54;52404.78;;;-145.69;100.00
1726;BME280;41776;48.260;8.928;2023-05-23T09:25:21;52396.84;;;-145.69;100.00
1726;BME280;41776;48.260;8.928;2023-05-23T09:27:47;52365.16;;;-145.69;100.00
1726;BME280;41776;48.260;8.928;2023-05-23T09:30:16;52384.97;;;-145.69;100.00
1726;BME280;41776;48.260;8.928;2023-05-23T09:32:56;52400.81;;;-145.69;100.00
1726;BME280;41776;48.260;8.928;2023-05-23T09:35:23;52406.75;;;-145.69;100.00
1726;BME280;41776;48.260;8.928;2023-05-23T09:37:50;52381.00;;;-145.69;100.00
1726;BME280;41776;48.260;8.928;2023-05-23T09:40:20;52398.84;;;-145.69;100.00
1726;BME280;41776;48.260;8.928;2023-05-23T09:42:47;52383.00;;;-145.69;100.00
1726;BME280;41776;48.260;8.928;2023-05-23T09:45:16;52422.59;;;-145.69;100.00
1726;BME280;41776;48.260;8.928;2023-05-23T09:47:48;52406.75;;;-145.69;100.00
1726;BME280;41776;48.260;8.928;2023-05-23T09:50:15;52375.06;;;-145.69;100.00
1726;BME280;41776;48.260;8.928;2023-05-23T09:52:41;52384.97;;;-145.69;100.00
1726;BME280;41776;48.260;8.928;2023-05-23T09:55:09;52400.81;;;-145.69;100.00
1726;BME280;41776;48.260;8.928;2023-05-23T09:57:39;52379.03;;;-145.69;100.00
1726;BME280;41776;48.260;8.928;2023-05-23T10:00:13;52392.91;;;-145.69;100.00
1726;BME280;41776;48.260;8.928;2023-05-23T10:02:53;52398.84;;;-145.69;100.00
1726;BME280;41776;48.260;8.928;2023-05-23T10:05:29;52404.78;;;-145.69;100.00
1726;BME280;41776;48.260;8.928;2023-05-23T10:07:57;52412.69;;;-145.69;100.00
1726;BME280;41776;48.260;8.928;2023-05-23T10:10:27;52384.97;;;-145.69;100.00
1726;BME280;41776;48.260;8.928;2023-05-23T10:12:57;52365.16;;;-145.69;100.00
1726;BME280;41776;48.260;8.928;2023-05-23T10:15:28;52371.13;;;-145.69;100.00
1726;BME280;41776;48.260;8.928;2023-05-23T10:18:01;52394.88;;;-145.69;100.00
1726;BME280;41776;48.260;8.928;2023-05-23T10:20:30;52363.19;;;-145.69;100.00
1726;BME280;41776;48.260;8.928;2023-05-23T10:22:59;52357.25;;;-145.69;100.00
1726;BME280;41776;48.260;8.928;2023-05-23T10:25:26;52341.41;;;-145.69;100.00
1726;BME280;41776;48.260;8.928;2023-05-23T10:27:55;52367.16;;;-145.69;100.00
1726;BME280;41776;48.260;8.928;2023-05-23T10:30:24;52349.31;;;-145.69;100.00
1726;BME280;41776;48.260;8.928;2023-05-23T10:32:52;52359.22;;;-145.69;100.00
1726;BME280;41776;48.260;8.928;2023-05-23T10:35:23;52345.38;;;-145.69;100.00
1726;BME280;41776;48.260;8.928;2023-05-23T10:37:58;52317.66;;;-145.69;100.00
1726;BME280;41776;48.260;8.928;2023-05-23T10:40:32;52317.66;;;-145.69;100.00
1726;BME280;41776;48.260;8.928;2023-05-23T10:43:04;52327.53;;;-145.69;100.00
1726;BME280;41776;48.260;8.928;2023-05-23T10:45:39;52315.66;;;-145.69;100.00
1726;BME280;41776;48.260;8.928;2023-05-23T10:48:19;52345.38;;;-145.69;100.00
1726;BME280;41776;48.260;8.928;2023-05-23T10:51:00;52329.53;;;-145.69;100.00
1726;BME280;41776;48.260;8.928;2023-05-23T10:53:28;52349.31;;;-145.69;100.00
1726;BME280;41776;48.260;8.928;2023-05-23T10:55:55;52333.47;;;-145.69;100.00
1726;BME280;41776;48.260;8.928;2023-05-23T10:58:22;52329.53;;;-145.69;100.00
1726;BME280;41776;48.260;8.928;2023-05-23T11:00:50;52343.38;;;-145.69;100.00
1726;BME280;41776;48.260;8.928;2023-05-23T11:03:18;52313.69;;;-145.69;98.64
1726;BME280;41776;48.260;8.928;2023-05-23T11:05:57;52327.53;;;-145.69;100.00
1726;BME280;41776;48.260;8.928;2023-05-23T11:08:23;52327.53;;;-145.69;100.00
1726;BME280;41776;48.260;8.928;2023-05-23T11:10:51;52333.47;;;-145.69;100.00
1726;BME280;41776;48.260;8.928;2023-05-23T11:13:18;52331.50;;;-145.69;100.00
1726;BME280;41776;48.260;8.928;2023-05-23T11:15:58;52297.84;;;-145.69;98.27
1726;BME280;41776;48.260;8.928;2023-05-23T11:18:26;52325.56;;;-145.69;96.17
1726;BME280;41776;48.260;8.928;2023-05-23T11:20:53;52327.53;;;-145.69;95.00
1726;BME280;41776;48.260;8.928;2023-05-23T11:23:22;52278.03;;;-145.69;99.63
1726;BME280;41776;48.260;8.928;2023-05-23T11:25:52;52321.59;;;-145.69;98.72
1726;BME280;41776;48.260;8.928;2023-05-23T11:28:19;52317.66;;;-145.69;98.07
1726;BME280;41776;48.260;8.928;2023-05-23T11:30:49;52329.53;;;-145.69;95.20
1726;BME280;41776;48.260;8.928;2023-05-23T11:33:16;52295.84;;;-145.69;90.18
1726;BME280;41776;48.260;8.928;2023-05-23T11:35:46;52321.59;;;-145.69;95.53
1726;BME280;41776;48.260;8.928;2023-05-23T11:38:14;52299.81;;;-145.69;93.75
1726;BME280;41776;48.260;8.928;2023-05-23T11:40:44;52289.91;;;-145.69;94.04
1726;BME280;41776;48.260;8.928;2023-05-23T11:43:13;52307.75;;;-145.69;91.15
1726;BME280;41776;48.260;8.928;2023-05-23T11:45:41;52282.00;;;-145.69;85.48
1726;BME280;41776;48.260;8.928;2023-05-23T11:48:08;52301.81;;;-145.69;83.77
1726;BME280;41776;48.260;8.928;2023-05-23T11:50:43;52289.91;;;-145.69;88.87
1726;BME280;41776;48.260;8.928;2023-05-23T11:53:10;52293.88;;;-145.69;87.71
1726;BME280;41776;48.260;8.928;2023-05-23T11:55:49;52357.25;;;-145.69;94.09
1726;BME280;41776;48.260;8.928;2023-05-23T11:58:17;52367.16;;;-145.69;93.72
1726;BME280;41776;48.260;8.928;2023-05-23T12:00:45;52339.44;;;-145.69;93.34
1726;BME280;41776;48.260;8.928;2023-05-23T12:03:12;52335.47;;;-145.69;93.27
1726;BME280;41776;48.260;8.928;2023-05-23T12:05:42;52323.59;;;-145.69;92.42
1726;BME280;41776;48.260;8.928;2023-05-23T12:08:10;52313.69;;;-145.69;93.78
1726;BME280;41776;48.260;8.928;2023-05-23T12:10:49;52309.72;;;-145.69;92.51
1726;BME280;41776;48.260;8.928;2023-05-23T12:13:16;52297.84;;;-145.69;88.75
1726;BME280;41776;48.260;8.928;2023-05-23T12:15:43;52317.66;;;-145.69;88.77
1726;BME280;41776;48.260;8.928;2023-05-23T12:18:11;52309.72;;;-145.69;85.38
1726;BME280;41776;48.260;8.928;2023-05-23T12:20:39;52297.84;;;-145.69;84.51
1726;BME280;41776;48.260;8.928;2023-05-23T12:23:06;52303.78;;;-145.69;84.79
1726;BME280;41776;48.260;8.928;2023-05-23T12:25:39;52278.03;;;-145.69;80.67
1726;BME280;41776;48.260;8.928;2023-05-23T12:28:08;52278.03;;;-145.69;81.50
1726;BME280;41776;48.260;8.928;2023-05-23T12:30:41;52309.72;;;-145.69;80.63
1726;BME280;41776;48.260;8.928;2023-05-23T12:35:48;52315.66;;;-145.69;82.18
1726;BME280;41776;48.260;8.928;2023-05-23T12:38:15;52293.88;;;-145.69;75.00
1726;BME280;41776;48.260;8.928;2023-05-23T12:40:43;52270.13;;;-145.69;76.19
1726;BME280;41776;48.260;8.928;2023-05-23T12:43:14;52246.34;;;-145.69;74.93
1726;BME280;41776;48.260;8.928;2023-05-23T12:45:40;52272.09;;;-145.69;66.88
1726;BME280;41776;48.260;8.928;2023-05-23T12:48:07;52289.91;;;-145.69;75.40
1726;BME280;41776;48.260;8.928;2023-05-23T12:50:35;52270.13;;;-145.69;73.38